Time;durP1;ratioP1;P1;durP2;ratioP2;P2;SDS_P1;SDS_P2;PMS_P1;PMS_P2;Temp;Humidity;BMP_temperature;BMP_pressure;BME280_temperature;BME280_humidity;BME280_pressure;Samples;Min_cycle;Max_cycle;Signal;HPM_P1;HPM_P2
2020/12/07 00:00:59;;;;;;;26.45;12.07;;;4.40;99.90;;;2.68;94.04;99406.03;4963613;28;20053;-40
2020/12/07 00:03:26;;;;;;;25.35;11.88;;;4.40;99.90;;;2.67;93.86;99407.06;4947196;28;20076;-40
2020/12/07 00:05:54;;;;;;;25.57;11.87;;;4.40;99.90;;;2.65;93.90;99408.28;4947397;28;20049;-40
2020/12/07 00:08:21;;;;;;;23.08;11.60;;;4.40;99.90;;;2.63;94.33;99408.47;4963721;28;20600;-40
2020/12/07 00:10:49;;;;;;;22.43;11.03;;;4.40;99.90;;;2.65;94.59;99386.75;4963360;28;20042;-40
2020/12/07 00:13:17;;;;;;;22.33;11.15;;;4.40;99.90;;;2.65;93.58;99382.19;4947005;28;20056;-40
2020/12/07 00:15:45;;;;;;;23.63;11.35;;;4.40;99.90;;;2.66;94.05;99383.88;4979126;28;20042;-40
2020/12/07 00:18:13;;;;;;;22.80;12.35;;;4.40;99.90;;;2.65;93.88;99386.75;4978998;28;20042;-40
2020/12/07 00:20:45;;;;;;;25.80;10.93;;;4.40;99.90;;;2.63;94.18;99384.22;4979563;28;20476;-40
2020/12/07 00:23:13;;;;;;;22.15;10.77;;;4.40;99.90;;;2.65;94.62;99384.91;4978908;28;20045;-40
2020/12/07 00:25:41;;;;;;;24.88;11.93;;;4.40;99.90;;;2.63;93.65;99378.84;4963054;28;20102;-40
2020/12/07 00:28:08;;;;;;;25.23;11.48;;;4.40;99.90;;;2.64;93.79;99390.47;4963051;28;20473;-40
2020/12/07 00:30:36;;;;;;;25.27;12.45;;;4.40;99.90;;;2.62;93.82;99393.34;4963027;28;20103;-40
2020/12/07 00:33:03;;;;;;;22.40;11.33;;;4.40;99.90;;;2.57;94.19;99395.78;4947011;28;20076;-40
2020/12/07 00:35:30;;;;;;;24.75;11.60;;;4.40;99.90;;;2.62;93.68;99411.38;4962730;28;20050;-40
2020/12/07 00:37:58;;;;;;;23.27;11.83;;;4.40;99.90;;;2.62;93.94;99411.38;4963130;28;20576;-40
2020/12/07 00:40:25;;;;;;;26.80;13.18;;;4.40;99.90;;;2.60;93.70;99400.78;4978535;28;21072;-40
2020/12/07 00:42:53;;;;;;;23.43;12.20;;;4.30;99.90;;;2.56;93.82;99404.91;4946858;28;20149;-40
2020/12/07 00:45:24;;;;;;;23.63;12.95;;;4.30;99.90;;;2.54;93.39;99402.41;4964447;28;20543;-40
2020/12/07 00:47:51;;;;;;;25.35;12.23;;;4.30;99.90;;;2.50;94.00;99398.41;4962554;28;20056;-40
2020/12/07 00:50:19;;;;;;;24.07;12.47;;;4.30;99.90;;;2.52;93.75;99406.31;4978825;28;20125;-40
2020/12/07 00:52:46;;;;;;;24.10;12.02;;;4.30;99.90;;;2.49;93.36;99407.53;4962714;28;20506;-40
2020/12/07 00:55:14;;;;;;;24.38;11.90;;;4.30;99.90;;;2.47;93.55;99395.31;4962639;28;20041;-40
2020/12/07 00:57:41;;;;;;;26.45;13.88;;;4.20;99.90;;;2.50;93.47;99384.97;4978424;28;20050;-40
2020/12/07 01:00:09;;;;;;;25.88;12.77;;;4.30;99.90;;;2.47;93.51;99379.16;4946975;28;20526;-40
2020/12/07 01:02:42;;;;;;;27.15;13.40;;;4.30;99.90;;;2.47;93.30;99373.75;4979453;28;20054;-40
2020/12/07 01:05:10;;;;;;;23.23;12.30;;;4.30;99.90;;;2.41;93.20;99360.06;4946350;28;20132;-40
2020/12/07 01:07:38;;;;;;;25.33;12.25;;;4.20;99.90;;;2.42;93.36;99356.34;4963229;28;20045;-40
2020/12/07 01:10:06;;;;;;;22.17;11.68;;;4.20;99.90;;;2.41;92.89;99356.53;4947172;28;20054;-40
2020/12/07 01:12:36;;;;;;;23.98;11.98;;;4.20;99.90;;;2.42;93.32;99367.13;4947409;28;20053;-40
2020/12/07 01:15:04;;;;;;;23.63;12.02;;;4.20;99.90;;;2.44;92.88;99369.59;4978259;28;20405;-40
2020/12/07 01:17:33;;;;;;;21.02;11.73;;;4.20;99.90;;;2.41;93.04;99373.53;4963028;28;20126;-40
2020/12/07 01:20:06;;;;;;;21.60;11.35;;;4.20;99.90;;;2.41;93.37;99378.91;4980086;28;20512;-40
2020/12/07 01:22:36;;;;;;;21.65;11.52;;;4.20;99.90;;;2.40;93.18;99379.09;4978705;28;20107;-40
2020/12/07 01:25:05;;;;;;;24.80;12.30;;;4.20;99.90;;;2.41;92.69;99376.22;4962954;28;20053;-40
2020/12/07 01:27:42;;;;;;;22.55;12.18;;;4.20;99.90;;;2.38;93.22;99371.19;4981021;28;20050;-40
2020/12/07 01:30:10;;;;;;;;;;;4.20;99.90;;;2.36;93.79;99367.88;4963302;28;20077;-40
2020/12/07 01:32:38;;;;;;;23.75;11.82;;;4.10;99.90;;;2.38;93.51;99381.97;4994643;28;20315;-40
2020/12/07 01:35:06;;;;;;;24.63;12.07;;;4.20;99.90;;;2.37;93.40;99383.00;4962473;28;20096;-40
2020/12/07 01:37:34;;;;;;;21.73;11.30;;;4.10;99.90;;;2.39;93.27;99374.72;4962432;28;20048;-40
2020/12/07 01:40:03;;;;;;;22.63;12.35;;;4.10;99.90;;;2.39;93.04;99374.72;4946642;28;20076;-40
2020/12/07 01:42:31;;;;;;;21.98;11.80;;;4.20;99.90;;;2.36;93.40;99367.88;4994290;28;20042;-40
2020/12/07 01:45:00;;;;;;;23.00;12.20;;;4.10;99.90;;;2.35;93.15;99358.13;4978253;28;20061;-40
2020/12/07 01:47:29;;;;;;;26.42;13.32;;;4.10;99.90;;;2.33;93.33;99352.09;4978553;28;20432;-40
2020/12/07 01:50:04;;;;;;;20.88;11.63;;;4.10;99.90;;;2.30;93.34;99347.97;4995111;28;20424;-40
2020/12/07 01:52:34;;;;;;;22.83;11.77;;;4.10;99.90;;;2.33;92.84;99345.91;4978276;28;20524;-40
2020/12/07 01:55:05;;;;;;;23.30;12.52;;;4.10;99.90;;;2.28;93.77;99344.63;4994249;28;20099;-40
2020/12/07 01:57:44;;;;;;;23.23;12.43;;;4.10;99.90;;;2.30;93.58;99333.66;4981397;28;20050;-40
2020/12/07 02:00:12;;;;;;;;;;;4.10;99.90;;;2.32;92.94;99350.44;4962771;28;20050;-40
2020/12/07 02:02:50;;;;;;;22.67;11.50;;;4.10;99.90;;;2.30;92.87;99342.59;4980687;28;20322;-40
2020/12/07 02:05:26;;;;;;;23.20;11.73;;;4.10;99.90;;;2.33;92.93;99327.88;4979213;28;20046;-40
2020/12/07 02:08:16;;;;;;;26.08;12.30;;;4.10;99.90;;;2.30;92.49;99325.59;4978371;28;20050;-40
2020/12/07 02:10:54;;;;;;;25.38;12.35;;;4.10;99.90;;;2.28;93.72;99328.50;4995290;28;20042;-40
2020/12/07 02:13:26;;;;;;;24.42;12.77;;;4.10;99.90;;;2.28;93.17;99333.03;4979351;28;20046;-40
2020/12/07 02:15:54;;;;;;;25.30;12.55;;;4.00;99.90;;;2.27;93.58;99326.81;4965414;28;20516;-40
2020/12/07 02:18:27;;;;;;;21.08;11.90;;;4.00;99.90;;;2.27;93.55;99325.97;4952830;28;20069;-40
2020/12/07 02:20:57;;;;;;;22.83;11.95;;;4.00;99.90;;;2.25;93.28;99326.16;4966975;28;20050;-40
2020/12/07 02:23:34;;;;;;;23.00;12.80;;;4.00;99.90;;;2.28;93.22;99331.19;4969257;28;20049;-40
2020/12/07 02:26:12;;;;;;;24.98;12.15;;;4.00;99.90;;;2.29;93.40;99319.38;4969521;28;20132;-40
2020/12/07 02:28:41;;;;;;;27.15;13.07;;;4.10;99.90;;;2.29;93.54;99323.91;4949859;28;20045;-40
2020/12/07 02:31:10;;;;;;;23.38;12.32;;;4.10;99.90;;;2.30;93.78;99315.66;4981957;28;20050;-40
2020/12/07 02:33:39;;;;;;;24.83;12.05;;;4.10;99.90;;;2.34;93.52;99316.09;4965814;28;20482;-40
2020/12/07 02:36:10;;;;;;;25.63;13.02;;;4.10;99.90;;;2.32;93.15;99312.75;4950373;28;20400;-40
2020/12/07 02:38:45;;;;;;;25.42;13.18;;;4.10;99.90;;;2.29;93.76;99324.78;4982232;28;20050;-40
2020/12/07 02:41:12;;;;;;;24.92;12.82;;;4.10;99.90;;;2.28;93.26;99324.94;4981326;28;20119;-40
2020/12/07 02:43:41;;;;;;;25.70;13.07;;;4.10;99.90;;;2.29;93.00;99323.91;4949567;28;20037;-40
2020/12/07 02:46:09;;;;;;;25.08;12.75;;;4.10;99.90;;;2.32;93.10;99317.31;4949983;28;20108;-40
2020/12/07 02:48:37;;;;;;;25.70;13.18;;;4.10;99.90;;;2.29;93.48;99314.00;4965133;28;20126;-40
2020/12/07 02:51:09;;;;;;;27.02;13.07;;;4.10;99.90;;;2.29;93.43;99302.38;4967141;28;20108;-40
2020/12/07 02:53:37;;;;;;;27.23;13.25;;;4.10;99.90;;;2.32;93.98;99299.31;4965202;28;20046;-40
2020/12/07 02:56:07;;;;;;;27.17;12.75;;;4.10;99.90;;;2.23;93.77;99278.97;4966080;28;20042;-40
2020/12/07 02:58:44;;;;;;;26.33;12.90;;;4.10;99.90;;;2.31;93.63;99297.63;4954033;28;20129;-40
2020/12/07 03:01:12;;;;;;;;;;;4.10;99.90;;;2.31;93.28;99300.34;4965655;28;20424;-40
2020/12/07 03:03:39;;;;;;;22.75;11.85;;;4.10;99.90;;;2.34;92.96;99301.81;4964769;28;19927;-40
2020/12/07 03:06:07;;;;;;;22.85;12.45;;;4.10;99.90;;;2.30;92.99;99301.38;4964943;28;20053;-40
2020/12/07 03:08:35;;;;;;;24.73;12.10;;;4.10;99.90;;;2.33;93.62;99300.97;4948835;28;20034;-40
2020/12/07 03:11:07;;;;;;;22.17;12.13;;;4.10;99.90;;;2.32;92.79;99302.00;4966328;28;20050;-40
2020/12/07 03:13:38;;;;;;;24.35;12.63;;;4.10;99.90;;;2.32;93.16;99303.88;4995804;28;20042;-40
2020/12/07 03:16:06;;;;;;;22.80;12.02;;;4.10;99.90;;;2.33;93.17;99319.81;4964795;28;20070;-40
2020/12/07 03:18:37;;;;;;;27.02;12.55;;;4.10;99.90;;;2.34;93.20;99326.84;4966029;28;20046;-40
2020/12/07 03:21:08;;;;;;;27.80;13.15;;;4.10;99.90;;;2.33;92.84;99329.75;4981556;28;20050;-40
2020/12/07 03:23:38;;;;;;;24.42;12.68;;;4.10;99.90;;;2.30;93.01;99328.28;4981140;28;20053;-40
2020/12/07 03:26:13;;;;;;;26.02;12.73;;;4.10;99.90;;;2.33;92.83;99329.75;4950788;28;20469;-40
2020/12/07 03:28:41;;;;;;;25.92;13.95;;;4.10;99.90;;;2.29;93.69;99329.31;4965132;28;20062;-40
2020/12/07 03:31:09;;;;;;;31.05;14.70;;;4.10;99.90;;;2.27;93.24;99331.34;4948639;28;20072;-40
2020/12/07 03:33:37;;;;;;;29.13;14.93;;;4.10;99.90;;;2.28;93.41;99341.94;4964261;28;20551;-40
2020/12/07 03:36:06;;;;;;;30.98;15.20;;;4.10;99.90;;;2.27;93.07;99336.75;4980448;28;20119;-40
2020/12/07 03:38:35;;;;;;;31.50;15.50;;;4.00;99.90;;;2.28;92.66;99341.09;4949048;28;20117;-40
2020/12/07 03:41:04;;;;;;;33.83;15.63;;;4.00;99.90;;;2.26;92.36;99337.78;4948697;28;20104;-40
2020/12/07 03:43:36;;;;;;;29.20;15.07;;;4.10;99.90;;;2.24;93.39;99334.44;4949775;28;20049;-40
2020/12/07 03:46:04;;;;;;;32.03;16.33;;;4.00;99.90;;;2.21;92.70;99322.19;4963758;28;20133;-40
2020/12/07 03:48:34;;;;;;;31.80;15.48;;;4.00;99.90;;;2.20;92.64;99317.03;4980708;28;20054;-40
2020/12/07 03:51:05;;;;;;;35.65;15.48;;;4.00;99.90;;;2.21;93.35;99319.50;4980693;28;20120;-40
2020/12/07 03:53:36;;;;;;;33.20;15.38;;;4.00;99.90;;;2.22;92.65;99318.47;4979368;28;20546;-40
2020/12/07 03:56:07;;;;;;;32.67;16.67;;;4.00;99.90;;;2.21;92.38;99316.00;4963907;28;20061;-40
2020/12/07 03:58:39;;;;;;;38.58;18.00;;;4.00;99.90;;;2.20;93.16;99317.03;4979966;28;20508;-40
2020/12/07 04:01:10;;;;;;;34.10;15.75;;;4.00;99.90;;;2.17;92.65;99314.72;4964103;28;20053;-40
2020/12/07 04:03:45;;;;;;;34.55;16.92;;;4.00;99.90;;;2.22;92.09;99312.28;4981097;28;20080;-40
2020/12/07 04:06:23;;;;;;;31.92;15.80;;;4.00;99.90;;;2.19;92.58;99309.97;4980779;28;20080;-40
2020/12/07 04:08:51;;;;;;;31.83;15.68;;;4.00;99.90;;;2.15;92.93;99301.44;4965956;28;20128;-40
2020/12/07 04:11:18;;;;;;;33.65;16.55;;;3.90;99.90;;;2.15;92.87;99310.38;4947133;28;20137;-40
2020/12/07 04:13:46;;;;;;;35.25;16.17;;;3.90;99.90;;;2.11;92.81;99309.06;4995437;28;20398;-40
2020/12/07 04:16:14;;;;;;;33.63;16.50;;;3.90;99.90;;;2.15;92.39;99320.28;4963690;28;20452;-40
2020/12/07 04:18:41;;;;;;;36.43;17.23;;;3.90;99.90;;;2.12;93.09;99323.38;4963636;28;20076;-40
2020/12/07 04:21:09;;;;;;;41.83;18.20;;;3.90;99.90;;;2.21;92.91;99327.56;4947250;28;20092;-40
2020/12/07 04:23:36;;;;;;;36.83;18.00;;;4.00;99.90;;;2.24;92.50;99329.88;4947086;28;20045;-40
2020/12/07 04:26:03;;;;;;;40.47;18.23;;;4.00;99.90;;;2.17;92.90;99325.50;4962905;28;20470;-40
2020/12/07 04:28:31;;;;;;;39.83;17.75;;;4.00;99.90;;;2.22;91.99;99339.19;4995545;28;20050;-40
2020/12/07 04:30:59;;;;;;;41.00;17.60;;;4.00;99.90;;;2.14;92.51;99327.53;4947528;28;20045;-40
2020/12/07 04:33:26;;;;;;;34.43;17.53;;;3.90;99.90;;;2.14;92.85;99332.94;4962767;28;20053;-40
2020/12/07 04:36:00;;;;;;;34.20;17.20;;;3.90;99.90;;;2.14;92.28;99332.09;4962941;28;20877;-40
2020/12/07 04:38:27;;;;;;;38.15;16.83;;;3.90;99.90;;;2.15;92.13;99326.53;4963143;28;20513;-40
2020/12/07 04:40:55;;;;;;;38.90;19.20;;;3.90;99.90;;;2.10;92.28;99315.47;4979266;28;20190;-40
2020/12/07 04:43:24;;;;;;;32.97;16.48;;;3.90;99.90;;;2.11;92.21;99319.03;4978895;28;20473;-40
2020/12/07 04:45:52;;;;;;;36.80;17.90;;;3.90;99.90;;;2.13;93.15;99319.66;4978605;28;20057;-40
2020/12/07 04:48:22;;;;;;;38.13;17.77;;;3.90;99.90;;;2.12;92.69;99312.59;4962772;28;20475;-40
2020/12/07 04:50:51;;;;;;;37.45;16.98;;;3.90;99.90;;;2.10;92.42;99312.78;5012313;28;20070;-40
2020/12/07 04:53:19;;;;;;;32.15;16.45;;;3.90;99.90;;;2.10;92.83;99304.72;5011946;28;20124;-40
2020/12/07 04:55:48;;;;;;;35.25;16.92;;;3.90;99.90;;;2.10;93.24;99299.34;4978445;28;20046;-40
2020/12/07 04:58:16;;;;;;;34.70;17.13;;;3.90;99.90;;;2.07;93.65;99304.28;4946853;28;20042;-40
2020/12/07 05:00:45;;;;;;;36.88;17.13;;;3.90;99.90;;;2.11;93.33;99311.75;4978360;28;20065;-40
2020/12/07 05:03:12;;;;;;;36.97;17.30;;;3.90;99.90;;;2.10;93.10;99326.25;4962283;28;20141;-40
2020/12/07 05:05:39;;;;;;;35.75;17.63;;;3.90;99.90;;;2.12;93.41;99340.38;4962336;28;20489;-40
2020/12/07 05:08:06;;;;;;;37.30;18.00;;;3.90;99.90;;;2.19;93.08;99339.59;4962320;28;20401;-40
2020/12/07 05:10:41;;;;;;;38.95;18.40;;;3.90;99.90;;;2.15;92.53;99341.81;4962412;28;20049;-40
2020/12/07 05:15:46;;;;;;;38.00;17.80;;;3.90;99.90;;;2.14;92.78;99335.63;4994137;28;20045;-40
2020/12/07 05:18:13;;;;;;;38.15;17.50;;;3.90;99.90;;;2.14;92.28;99337.47;4962508;28;20404;-40
2020/12/07 05:20:41;;;;;;;38.13;17.17;;;3.90;99.90;;;2.13;92.71;99333.09;4962365;28;20131;-40
2020/12/07 05:23:13;;;;;;;39.60;19.10;;;4.00;99.90;;;2.15;92.51;99341.81;4962260;28;20044;-40
2020/12/07 05:25:45;;;;;;;39.08;17.73;;;4.00;99.90;;;2.20;92.44;99349.31;4978654;28;20056;-40
2020/12/07 05:28:24;;;;;;;31.90;16.65;;;4.00;99.90;;;2.15;91.93;99342.66;5011695;28;20065;-40
2020/12/07 05:30:52;;;;;;;32.78;16.05;;;4.00;99.90;;;2.15;92.83;99342.66;4994280;28;20137;-40
2020/12/07 05:33:19;;;;;;;30.52;15.88;;;3.90;99.90;;;2.15;91.91;99339.13;4962299;28;20050;-40
2020/12/07 05:35:51;;;;;;;33.40;16.97;;;3.90;99.90;;;2.10;92.39;99320.88;4977877;28;20471;-40
2020/12/07 05:38:20;;;;;;;34.97;15.95;;;3.90;99.90;;;2.09;92.97;99329.97;4994995;28;20468;-40
2020/12/07 05:40:47;;;;;;;;;;;3.90;99.90;;;2.08;92.09;99333.69;4978431;28;20042;-40
2020/12/07 05:43:14;;;;;;;31.27;14.63;;;3.90;99.90;;;2.10;92.67;99346.94;4977946;28;20036;-40
2020/12/07 05:45:42;;;;;;;34.13;16.55;;;3.90;99.90;;;2.09;92.43;99338.03;4962008;28;20046;-40
2020/12/07 05:48:10;;;;;;;;;;;3.90;99.90;;;2.09;92.17;99340.72;4980905;28;20042;-40
2020/12/07 05:50:44;;;;;;;30.45;14.68;;;3.90;99.90;;;2.08;92.43;99344.44;4981792;28;19921;-40
2020/12/07 05:53:12;;;;;;;32.25;16.08;;;3.90;99.90;;;2.07;92.66;99337.41;5015448;28;20080;-40
2020/12/07 05:55:40;;;;;;;34.95;16.42;;;3.90;99.90;;;2.13;93.18;99339.34;4981432;28;20038;-40
2020/12/07 05:58:11;;;;;;;32.15;15.77;;;3.90;99.90;;;2.11;93.03;99329.78;4998229;28;20050;-40
2020/12/07 06:00:39;;;;;;;37.92;16.60;;;3.90;99.90;;;2.10;92.90;99320.03;5015546;28;20117;-40
2020/12/07 06:03:07;;;;;;;33.33;16.15;;;3.90;99.90;;;2.08;92.30;99320.22;4950253;28;20048;-40
2020/12/07 06:05:34;;;;;;;31.05;16.02;;;3.90;99.90;;;2.15;91.90;99329.22;4981290;28;20049;-40
2020/12/07 06:08:16;;;;;;;36.20;16.50;;;3.90;99.90;;;2.15;92.01;99334.59;4997979;28;20042;-40
2020/12/07 06:11:06;;;;;;;35.08;16.75;;;3.90;99.90;;;2.15;92.29;99337.28;4997701;28;20140;-40
2020/12/07 06:13:35;;;;;;;34.53;15.05;;;4.00;99.90;;;2.13;91.82;99336.66;4996860;28;20096;-40
2020/12/07 06:16:12;;;;;;;31.77;16.35;;;3.90;99.90;;;2.16;91.94;99340.78;4981307;28;20121;-40
2020/12/07 06:18:56;;;;;;;34.03;17.27;;;3.90;99.90;;;2.12;92.06;99340.38;5015257;28;20042;-40
2020/12/07 06:21:23;;;;;;;34.05;16.17;;;3.90;99.90;;;2.12;92.11;99339.53;5014979;28;20462;-40
2020/12/07 06:23:50;;;;;;;33.97;17.23;;;3.90;99.90;;;2.13;91.89;99346.56;4981308;28;20038;-40
2020/12/07 06:26:21;;;;;;;33.97;16.55;;;3.90;99.90;;;2.12;92.17;99345.75;4981110;28;20349;-40
2020/12/07 06:28:50;;;;;;;36.88;16.63;;;3.90;99.90;;;2.11;92.56;99348.63;4981720;28;20148;-40
2020/12/07 06:31:21;;;;;;;36.13;16.45;;;3.90;99.90;;;2.10;92.30;99350.47;4997596;28;20045;-40
2020/12/07 06:33:52;;;;;;;33.55;17.00;;;3.90;99.90;;;2.11;91.87;99345.94;5014684;28;20050;-40
2020/12/07 06:36:32;;;;;;;36.38;17.23;;;3.90;99.90;;;2.11;92.44;99348.63;5014335;28;20129;-40
2020/12/07 06:39:11;;;;;;;32.22;16.42;;;3.90;99.90;;;2.13;91.88;99352.78;4981581;28;20116;-40
2020/12/07 06:41:41;;;;;;;35.53;15.98;;;3.90;99.90;;;2.11;92.34;99354.81;4997375;28;20505;-40
2020/12/07 06:44:14;;;;;;;35.28;16.42;;;3.90;99.90;;;2.14;91.87;99356.31;5014340;28;20072;-40
2020/12/07 06:47:00;;;;;;;34.75;17.25;;;3.90;99.90;;;2.11;91.86;99354.00;4997048;28;20052;-40
2020/12/07 06:57:31;;;;;;;34.22;14.90;;;3.90;99.90;;;2.07;91.59;99367.00;5014182;28;20515;-40
2020/12/07 07:00:12;;;;;;;34.53;15.65;;;3.90;99.90;;;2.09;91.59;99373.00;4980109;28;20121;-40
2020/12/07 07:02:43;;;;;;;35.53;15.60;;;3.90;99.90;;;2.06;91.87;99375.28;4996817;28;20076;-40
2020/12/07 07:05:13;;;;;;;34.15;15.38;;;3.90;99.90;;;2.05;91.92;99377.13;4996660;28;20065;-40
2020/12/07 07:07:41;;;;;;;34.42;16.48;;;3.90;99.90;;;2.09;91.44;99372.19;4996435;28;20129;-40
2020/12/07 07:10:13;;;;;;;34.70;16.65;;;3.90;99.90;;;2.08;91.52;99389.38;4996791;28;20081;-40
2020/12/07 07:12:43;;;;;;;35.22;15.55;;;3.90;99.90;;;2.03;91.73;99384.56;5013983;28;20069;-40
2020/12/07 07:15:12;;;;;;;37.97;15.77;;;3.90;99.90;;;2.07;91.66;99379.63;4996081;28;20050;-40
2020/12/07 07:17:42;;;;;;;36.55;15.63;;;3.90;99.90;;;2.05;91.72;99385.19;5013795;28;20168;-40
2020/12/07 07:20:13;;;;;;;27.95;14.18;;;3.80;99.90;;;2.01;90.92;99387.44;4980167;28;20476;-40
2020/12/07 07:22:45;;;;;;;35.38;15.90;;;3.80;99.90;;;2.05;91.60;99392.44;5014035;28;20505;-40
2020/12/07 07:30:20;;;;;;;32.20;15.93;;;3.80;99.90;;;1.99;91.30;99394.88;4996435;28;20028;-40
2020/12/07 07:32:51;;;;;;;34.15;15.15;;;3.80;99.90;;;2.00;91.57;99403.78;5013903;28;20042;-40
2020/12/07 07:35:22;;;;;;;32.47;15.60;;;3.80;99.90;;;1.97;92.15;99412.22;5013495;28;20424;-40
2020/12/07 07:37:50;;;;;;;31.17;15.13;;;3.80;99.90;;;2.03;91.43;99414.16;5013513;28;20057;-40
2020/12/07 07:40:21;;;;;;;35.85;16.25;;;3.80;99.90;;;1.98;91.63;99413.88;4980202;28;20052;-40
2020/12/07 07:43:02;;;;;;;36.78;15.85;;;3.80;99.90;;;1.96;91.35;99415.94;5013546;28;20556;-40
2020/12/07 07:45:36;;;;;;;31.10;14.40;;;3.80;99.90;;;1.93;92.17;99421.72;5013403;28;20049;-40
2020/12/07 07:48:15;;;;;;;31.08;14.85;;;3.70;99.90;;;1.94;91.42;99413.44;4980381;28;20138;-40
2020/12/07 08:02:48;;;;;;;31.63;13.85;;;3.80;99.90;;;1.96;91.55;99424.00;4995671;28;20121;-40
2020/12/07 08:06:40;;;;;;;28.95;13.90;;;3.80;99.90;;;1.97;91.42;99426.50;4998546;28;20046;-40
2020/12/07 08:15:57;;;;;;;26.92;13.95;;;3.80;99.90;;;1.94;91.25;99437.63;4997088;28;20057;-40
2020/12/07 08:18:36;;;;;;;28.83;14.57;;;3.70;99.90;;;1.97;92.13;99441.81;5013010;28;20133;-40
2020/12/07 08:21:05;;;;;;;31.95;14.77;;;3.70;99.90;;;1.93;92.45;99445.91;5012819;28;20068;-40
2020/12/07 08:23:34;;;;;;;30.65;13.88;;;3.70;99.90;;;2.03;92.19;99456.38;4995390;28;20053;-40
2020/12/07 08:26:04;;;;;;;30.65;14.35;;;3.80;99.90;;;2.05;91.59;99451.63;5012562;28;20485;-40
2020/12/07 08:28:34;;;;;;;28.45;13.65;;;3.80;99.90;;;2.04;91.41;99450.78;4995424;28;20467;-40
2020/12/07 08:31:13;;;;;;;29.85;13.30;;;3.80;99.90;;;2.08;92.15;99453.94;5012886;28;20066;-40
2020/12/07 08:33:55;;;;;;;;;;;3.80;99.90;;;2.07;92.09;99455.78;4996020;28;20128;-40
2020/12/07 08:36:22;;;;;;;30.20;13.73;;;3.90;99.90;;;2.13;91.35;99460.44;5012493;28;19996;-40
2020/12/07 08:38:50;;;;;;;31.20;13.85;;;3.90;99.90;;;2.15;91.53;99469.16;4995432;28;20315;-40
2020/12/07 08:41:26;;;;;;;28.77;12.73;;;3.90;99.90;;;2.20;91.68;99473.94;5012643;28;20042;-40
2020/12/07 08:43:57;;;;;;;31.55;14.38;;;3.90;99.90;;;2.15;91.77;99462.91;5012297;28;20042;-40
2020/12/07 08:46:27;;;;;;;31.85;15.02;;;3.90;99.90;;;2.12;92.01;99474.91;5012275;28;20046;-40
2020/12/07 08:48:57;;;;;;;32.88;15.30;;;3.90;99.90;;;2.15;91.42;99481.75;4994831;28;20046;-40
2020/12/07 08:51:28;;;;;;;34.85;16.58;;;3.90;99.90;;;2.19;92.04;99484.91;4978538;28;20046;-40
2020/12/07 08:53:55;;;;;;;33.70;16.30;;;3.90;99.90;;;2.13;91.67;99481.97;5012001;28;20432;-40
2020/12/07 08:56:22;;;;;;;33.47;16.52;;;3.90;99.90;;;2.13;92.26;99481.09;4994895;28;20124;-40
2020/12/07 08:58:49;;;;;;;36.58;17.10;;;3.90;99.90;;;2.14;91.76;99485.47;4994874;28;20049;-40
2020/12/07 09:01:17;;;;;;;35.63;17.08;;;3.90;99.90;;;2.13;92.13;99484.66;4946542;28;20476;-40
2020/12/07 09:03:46;;;;;;;37.63;17.85;;;3.90;99.90;;;2.11;91.93;99483.97;4994942;28;20034;-40
2020/12/07 09:06:16;;;;;;;39.90;18.48;;;3.90;99.90;;;2.16;92.16;99491.50;5012103;28;20045;-40
2020/12/07 09:08:44;;;;;;;39.55;17.08;;;3.90;99.90;;;2.15;91.58;99490.66;5012061;28;20042;-40
2020/12/07 09:11:15;;;;;;;40.20;17.60;;;4.00;99.90;;;2.17;91.94;99481.56;4994365;28;20050;-40
2020/12/07 09:13:43;;;;;;;35.58;16.73;;;3.90;99.90;;;2.14;91.30;99499.75;4978361;28;20120;-40
2020/12/07 09:16:10;;;;;;;37.88;17.23;;;3.90;99.90;;;2.12;91.04;99487.50;5011992;28;20048;-40
2020/12/07 09:18:39;;;;;;;36.28;16.40;;;4.00;99.90;;;2.13;91.53;99498.09;4962265;28;20046;-40
2020/12/07 09:21:09;;;;;;;38.05;17.27;;;3.90;99.90;;;2.13;91.63;99503.47;4994570;28;20038;-40
2020/12/07 09:23:38;;;;;;;38.53;16.95;;;3.90;99.90;;;2.13;91.16;99513.41;4978058;28;20121;-40
2020/12/07 09:26:07;;;;;;;39.08;16.85;;;3.90;99.90;;;2.12;91.18;99520.66;5011883;28;20049;-40
2020/12/07 09:28:36;;;;;;;33.10;16.02;;;3.90;99.90;;;2.12;91.81;99523.34;5011921;28;20045;-40
2020/12/07 09:31:05;;;;;;;40.22;17.50;;;3.90;99.90;;;2.11;92.17;99518.97;5011919;28;20052;-40
2020/12/07 09:33:36;;;;;;;37.00;17.65;;;3.90;99.90;;;2.11;91.18;99529.72;4993860;28;20571;-40
2020/12/07 09:36:05;;;;;;;34.05;16.08;;;3.90;99.90;;;2.11;91.69;99527.03;4994055;28;20152;-40
2020/12/07 09:38:33;;;;;;;38.08;17.15;;;3.90;99.90;;;2.09;91.75;99529.06;5011725;28;20053;-40
2020/12/07 09:41:00;;;;;;;36.83;15.73;;;3.90;99.90;;;2.09;91.78;99539.03;4994573;28;20464;-40
2020/12/07 09:43:27;;;;;;;37.67;16.90;;;3.90;99.90;;;2.06;91.85;99542.91;4993929;28;20596;-40
2020/12/07 09:45:55;;;;;;;32.63;15.20;;;3.90;99.90;;;2.06;92.12;99542.09;4994473;28;20498;-40
2020/12/07 09:48:22;;;;;;;40.22;18.17;;;3.90;99.90;;;2.09;92.10;99550.59;4994379;28;20443;-40
2020/12/07 09:50:50;;;;;;;35.72;16.20;;;3.90;99.90;;;2.10;92.14;99544.19;4994396;28;20064;-40
2020/12/07 09:53:19;;;;;;;33.67;15.73;;;3.90;99.90;;;2.10;92.89;99541.50;4978234;28;20052;-40
2020/12/07 09:55:46;;;;;;;37.08;16.80;;;3.90;99.90;;;2.11;92.81;99543.19;4994520;28;20132;-40
2020/12/07 09:58:15;;;;;;;33.47;16.63;;;3.90;99.90;;;2.15;92.35;99554.41;4978548;28;20038;-40
2020/12/07 10:00:42;;;;;;;38.38;16.65;;;3.90;99.90;;;2.15;92.02;99551.72;5011557;28;20471;-40
2020/12/07 10:03:09;;;;;;;35.97;15.98;;;3.90;99.90;;;2.15;91.76;99555.25;4994064;28;20042;-40
2020/12/07 10:05:36;;;;;;;35.10;16.03;;;4.00;99.90;;;2.21;91.65;99555.53;4977653;28;20560;-40
2020/12/07 10:08:04;;;;;;;33.03;16.40;;;4.00;99.90;;;2.20;92.17;99557.38;4962327;28;20447;-40
2020/12/07 10:10:31;;;;;;;36.70;16.23;;;4.00;99.90;;;2.22;92.17;99554.50;4977778;28;20046;-40
2020/12/07 10:13:03;;;;;;;31.27;15.23;;;4.00;99.90;;;2.24;92.76;99560.53;5011062;28;20073;-40
2020/12/07 10:15:31;;;;;;;40.10;15.63;;;4.00;99.90;;;2.26;92.03;99551.25;4993852;28;20041;-40
2020/12/07 10:17:58;;;;;;;34.42;15.23;;;4.00;99.90;;;2.29;92.64;99550.00;4977746;28;20041;-40
2020/12/07 10:20:25;;;;;;;36.60;17.08;;;4.00;99.90;;;2.33;92.42;99556.69;4962104;28;20056;-40
2020/12/07 10:22:52;;;;;;;33.38;15.13;;;4.10;99.90;;;2.36;92.88;99553.59;4977804;28;20133;-40
2020/12/07 10:25:19;;;;;;;35.08;15.07;;;4.10;99.90;;;2.38;92.56;99556.94;4977681;28;20120;-40
2020/12/07 10:27:46;;;;;;;36.40;15.70;;;4.10;99.90;;;2.39;92.26;99558.63;4977849;28;20042;-40
2020/12/07 10:30:13;;;;;;;35.83;16.65;;;4.10;99.90;;;2.45;92.53;99565.09;4993752;28;20070;-40
2020/12/07 10:32:40;;;;;;;33.40;14.85;;;4.10;99.90;;;2.43;92.43;99565.31;4993894;28;20501;-40
2020/12/07 10:35:07;;;;;;;37.55;16.10;;;4.20;99.90;;;2.48;91.97;99564.72;4963144;28;20050;-40
2020/12/07 10:37:34;;;;;;;36.33;15.85;;;4.20;99.90;;;2.49;92.67;99568.25;4998462;28;20042;-40
2020/12/07 10:40:01;;;;;;;37.17;15.80;;;4.20;99.90;;;2.51;92.35;99561.63;4997463;28;20484;-40
2020/12/07 10:42:28;;;;;;;32.85;15.40;;;4.30;99.90;;;2.56;93.05;99556.53;4997463;28;20066;-40
2020/12/07 10:44:55;;;;;;;37.13;15.90;;;4.30;99.90;;;2.57;92.33;99554.66;5014697;28;20037;-40
2020/12/07 10:47:22;;;;;;;34.75;15.23;;;4.30;99.90;;;2.57;91.98;99568.97;4964957;28;20050;-40
2020/12/07 10:49:50;;;;;;;34.17;14.50;;;4.30;99.90;;;2.60;92.31;99565.06;4997481;28;20050;-40
2020/12/07 10:52:17;;;;;;;30.93;13.40;;;4.30;99.90;;;2.65;91.81;99564.47;4964936;28;20045;-40
2020/12/07 10:54:44;;;;;;;33.17;15.05;;;4.40;99.90;;;2.65;91.71;99561.78;4996620;28;20483;-40
2020/12/07 10:57:11;;;;;;;30.52;13.52;;;4.40;99.90;;;2.63;91.45;99559.28;5014131;28;20052;-40
2020/12/07 10:59:38;;;;;;;31.85;14.55;;;4.40;99.90;;;2.68;92.42;99558.72;5014495;28;20121;-40
2020/12/07 11:02:06;;;;;;;31.23;15.20;;;4.40;99.90;;;2.67;92.54;99560.59;4997037;28;20560;-40
2020/12/07 11:04:33;;;;;;;29.92;13.50;;;4.40;99.90;;;2.72;92.09;99565.38;4980754;28;20117;-40
2020/12/07 11:07:02;;;;;;;29.45;13.13;;;4.50;99.90;;;2.72;92.38;99563.53;4996711;28;20512;-40